sensor_id;sensor_type;location;lat;lon;timestamp;P1;durP1;ratioP1;P2;durP2;ratioP2
65769;SDS011;52512;47.650;8.578;2023-04-25T00:00:04;5.03;;;2.70;;
65769;SDS011;52512;47.650;8.578;2023-04-25T00:02:32;5.70;;;2.55;;
65769;SDS011;52512;47.650;8.578;2023-04-25T00:04:59;9.90;;;2.33;;
65769;SDS011;52512;47.650;8.578;2023-04-25T00:07:26;3.45;;;2.60;;
65769;SDS011;52512;47.650;8.578;2023-04-25T00:09:52;3.60;;;2.30;;
65769;SDS011;52512;47.650;8.578;2023-04-25T00:12:18;4.93;;;2.37;;
65769;SDS011;52512;47.650;8.578;2023-04-25T00:14:44;9.70;;;2.70;;
65769;SDS011;52512;47.650;8.578;2023-04-25T00:17:11;2.60;;;2.15;;
65769;SDS011;52512;47.650;8.578;2023-04-25T00:19:37;7.23;;;2.13;;
65769;SDS011;52512;47.650;8.578;2023-04-25T00:22:03;5.27;;;2.20;;
65769;SDS011;52512;47.650;8.578;2023-04-25T00:24:30;5.88;;;2.50;;
65769;SDS011;52512;47.650;8.578;2023-04-25T00:26:56;9.13;;;2.33;;
65769;SDS011;52512;47.650;8.578;2023-04-25T00:29:21;2.83;;;2.60;;
65769;SDS011;52512;47.650;8.578;2023-04-25T00:31:47;3.33;;;2.63;;
65769;SDS011;52512;47.650;8.578;2023-04-25T00:34:13;2.50;;;2.30;;
65769;SDS011;52512;47.650;8.578;2023-04-25T00:36:38;6.13;;;2.53;;
65769;SDS011;52512;47.650;8.578;2023-04-25T00:39:04;1.97;;;1.87;;
65769;SDS011;52512;47.650;8.578;2023-04-25T00:41:30;5.87;;;2.87;;
65769;SDS011;52512;47.650;8.578;2023-04-25T00:43:55;5.40;;;2.50;;
65769;SDS011;52512;47.650;8.578;2023-04-25T00:46:22;6.72;;;2.00;;
65769;SDS011;52512;47.650;8.578;2023-04-25T00:48:48;4.43;;;2.00;;
65769;SDS011;52512;47.650;8.578;2023-04-25T00:51:15;4.17;;;2.23;;
65769;SDS011;52512;47.650;8.578;2023-04-25T00:53:44;2.72;;;2.00;;
65769;SDS011;52512;47.650;8.578;2023-04-25T00:56:10;4.97;;;2.78;;
65769;SDS011;52512;47.650;8.578;2023-04-25T00:58:36;4.27;;;2.60;;
65769;SDS011;52512;47.650;8.578;2023-04-25T01:01:12;9.10;;;3.33;;
65769;SDS011;52512;47.650;8.578;2023-04-25T01:03:38;12.82;;;3.10;;
65769;SDS011;52512;47.650;8.578;2023-04-25T01:06:11;2.45;;;2.25;;
65769;SDS011;52512;47.650;8.578;2023-04-25T01:08:40;3.28;;;2.35;;
65769;SDS011;52512;47.650;8.578;2023-04-25T01:11:10;7.85;;;2.30;;
65769;SDS011;52512;47.650;8.578;2023-04-25T01:13:35;2.40;;;2.13;;
65769;SDS011;52512;47.650;8.578;2023-04-25T01:16:02;2.13;;;2.03;;
65769;SDS011;52512;47.650;8.578;2023-04-25T01:18:28;10.13;;;2.53;;
65769;SDS011;52512;47.650;8.578;2023-04-25T01:20:54;4.73;;;2.13;;
65769;SDS011;52512;47.650;8.578;2023-04-25T01:23:21;3.20;;;2.45;;
65769;SDS011;52512;47.650;8.578;2023-04-25T01:25:47;5.53;;;2.20;;
65769;SDS011;52512;47.650;8.578;2023-04-25T01:28:14;3.58;;;2.15;;
65769;SDS011;52512;47.650;8.578;2023-04-25T01:30:40;3.20;;;2.00;;
65769;SDS011;52512;47.650;8.578;2023-04-25T01:33:06;14.88;;;1.63;;
65769;SDS011;52512;47.650;8.578;2023-04-25T01:35:33;5.60;;;2.50;;
65769;SDS011;52512;47.650;8.578;2023-04-25T01:37:59;5.33;;;2.40;;
65769;SDS011;52512;47.650;8.578;2023-04-25T01:40:25;8.50;;;2.80;;
65769;SDS011;52512;47.650;8.578;2023-04-25T01:42:53;4.20;;;1.88;;
65769;SDS011;52512;47.650;8.578;2023-04-25T01:45:19;2.53;;;1.73;;
65769;SDS011;52512;47.650;8.578;2023-04-25T01:47:44;4.03;;;2.40;;
65769;SDS011;52512;47.650;8.578;2023-04-25T01:50:14;5.55;;;1.77;;
65769;SDS011;52512;47.650;8.578;2023-04-25T01:52:40;1.60;;;1.50;;
65769;SDS011;52512;47.650;8.578;2023-04-25T01:55:06;2.63;;;2.13;;
65769;SDS011;52512;47.650;8.578;2023-04-25T01:57:32;1.83;;;1.73;;
65769;SDS011;52512;47.650;8.578;2023-04-25T01:59:58;3.50;;;2.27;;
65769;SDS011;52512;47.650;8.578;2023-04-25T02:02:26;3.05;;;2.75;;
65769;SDS011;52512;47.650;8.578;2023-04-25T02:04:52;2.53;;;2.33;;
65769;SDS011;52512;47.650;8.578;2023-04-25T02:07:17;4.93;;;2.53;;
65769;SDS011;52512;47.650;8.578;2023-04-25T02:09:43;3.40;;;1.73;;
65769;SDS011;52512;47.650;8.578;2023-04-25T02:12:09;1.90;;;1.80;;
65769;SDS011;52512;47.650;8.578;2023-04-25T02:14:35;3.20;;;2.22;;
65769;SDS011;52512;47.650;8.578;2023-04-25T02:17:01;2.33;;;2.23;;
65769;SDS011;52512;47.650;8.578;2023-04-25T02:19:26;1.57;;;1.40;;
65769;SDS011;52512;47.650;8.578;2023-04-25T02:21:52;7.83;;;2.20;;
65769;SDS011;52512;47.650;8.578;2023-04-25T02:24:18;7.90;;;2.37;;
65769;SDS011;52512;47.650;8.578;2023-04-25T02:26:43;12.63;;;2.00;;
65769;SDS011;52512;47.650;8.578;2023-04-25T02:29:09;3.10;;;1.73;;
65769;SDS011;52512;47.650;8.578;2023-04-25T02:31:35;8.20;;;1.92;;
65769;SDS011;52512;47.650;8.578;2023-04-25T02:34:01;4.20;;;1.77;;
65769;SDS011;52512;47.650;8.578;2023-04-25T02:36:26;2.00;;;1.90;;
65769;SDS011;52512;47.650;8.578;2023-04-25T02:38:52;5.33;;;1.67;;
65769;SDS011;52512;47.650;8.578;2023-04-25T02:41:18;2.83;;;1.80;;
65769;SDS011;52512;47.650;8.578;2023-04-25T02:43:43;4.40;;;2.13;;
65769;SDS011;52512;47.650;8.578;2023-04-25T02:46:09;3.53;;;1.80;;
65769;SDS011;52512;47.650;8.578;2023-04-25T02:48:35;1.50;;;1.43;;
65769;SDS011;52512;47.650;8.578;2023-04-25T02:51:01;12.23;;;1.77;;
65769;SDS011;52512;47.650;8.578;2023-04-25T02:53:26;2.70;;;1.77;;
65769;SDS011;52512;47.650;8.578;2023-04-25T02:55:52;13.10;;;2.40;;
65769;SDS011;52512;47.650;8.578;2023-04-25T02:58:18;3.20;;;3.00;;
65769;SDS011;52512;47.650;8.578;2023-04-25T03:00:44;2.30;;;2.08;;
65769;SDS011;52512;47.650;8.578;2023-04-25T03:03:10;3.67;;;2.00;;
65769;SDS011;52512;47.650;8.578;2023-04-25T03:05:36;13.43;;;2.40;;
65769;SDS011;52512;47.650;8.578;2023-04-25T03:08:01;2.70;;;2.50;;
65769;SDS011;52512;47.650;8.578;2023-04-25T03:10:34;4.70;;;2.13;;
65769;SDS011;52512;47.650;8.578;2023-04-25T03:12:59;5.25;;;1.55;;
65769;SDS011;52512;47.650;8.578;2023-04-25T03:15:25;3.57;;;2.37;;
65769;SDS011;52512;47.650;8.578;2023-04-25T03:17:51;2.60;;;2.30;;
65769;SDS011;52512;47.650;8.578;2023-04-25T03:20:17;2.40;;;1.73;;
65769;SDS011;52512;47.650;8.578;2023-04-25T03:22:43;1.93;;;1.77;;
65769;SDS011;52512;47.650;8.578;2023-04-25T03:25:09;4.20;;;2.17;;
65769;SDS011;52512;47.650;8.578;2023-04-25T03:27:35;4.20;;;2.40;;
65769;SDS011;52512;47.650;8.578;2023-04-25T03:30:01;2.70;;;2.10;;
65769;SDS011;52512;47.650;8.578;2023-04-25T03:32:27;2.45;;;1.92;;
65769;SDS011;52512;47.650;8.578;2023-04-25T03:34:53;2.10;;;1.90;;
65769;SDS011;52512;47.650;8.578;2023-04-25T03:37:19;2.10;;;1.90;;
65769;SDS011;52512;47.650;8.578;2023-04-25T03:39:44;9.40;;;2.70;;
65769;SDS011;52512;47.650;8.578;2023-04-25T03:42:10;6.30;;;3.10;;
65769;SDS011;52512;47.650;8.578;2023-04-25T03:44:36;3.43;;;2.57;;
65769;SDS011;52512;47.650;8.578;2023-04-25T03:47:01;15.30;;;2.90;;
65769;SDS011;52512;47.650;8.578;2023-04-25T03:49:27;4.63;;;2.70;;
65769;SDS011;52512;47.650;8.578;2023-04-25T03:51:52;14.77;;;6.33;;
65769;SDS011;52512;47.650;8.578;2023-04-25T03:54:18;5.77;;;3.83;;
65769;SDS011;52512;47.650;8.578;2023-04-25T03:56:44;8.00;;;3.97;;
65769;SDS011;52512;47.650;8.578;2023-04-25T03:59:09;7.33;;;3.53;;
65769;SDS011;52512;47.650;8.578;2023-04-25T04:01:35;7.07;;;3.47;;
65769;SDS011;52512;47.650;8.578;2023-04-25T04:04:01;6.50;;;3.23;;
65769;SDS011;52512;47.650;8.578;2023-04-25T04:06:26;2.30;;;2.10;;
65769;SDS011;52512;47.650;8.578;2023-04-25T04:08:52;6.93;;;2.20;;
65769;SDS011;52512;47.650;8.578;2023-04-25T04:11:18;10.07;;;3.13;;
65769;SDS011;52512;47.650;8.578;2023-04-25T04:13:43;6.30;;;2.30;;
65769;SDS011;52512;47.650;8.578;2023-04-25T04:16:10;3.80;;;2.80;;
65769;SDS011;52512;47.650;8.578;2023-04-25T04:18:36;6.55;;;2.35;;
65769;SDS011;52512;47.650;8.578;2023-04-25T04:21:02;3.80;;;2.70;;
65769;SDS011;52512;47.650;8.578;2023-04-25T04:23:27;5.27;;;3.37;;
65769;SDS011;52512;47.650;8.578;2023-04-25T04:25:54;8.33;;;3.23;;
65769;SDS011;52512;47.650;8.578;2023-04-25T04:28:21;4.90;;;3.85;;
65769;SDS011;52512;47.650;8.578;2023-04-25T04:30:47;8.07;;;4.22;;
65769;SDS011;52512;47.650;8.578;2023-04-25T04:33:13;3.70;;;2.97;;
65769;SDS011;52512;47.650;8.578;2023-04-25T04:35:40;5.57;;;3.55;;
65769;SDS011;52512;47.650;8.578;2023-04-25T04:38:06;6.07;;;3.50;;
65769;SDS011;52512;47.650;8.578;2023-04-25T04:40:32;3.07;;;2.83;;
65769;SDS011;52512;47.650;8.578;2023-04-25T04:42:58;14.47;;;3.40;;
65769;SDS011;52512;47.650;8.578;2023-04-25T04:45:23;7.97;;;3.00;;
65769;SDS011;52512;47.650;8.578;2023-04-25T04:47:49;8.47;;;4.20;;
65769;SDS011;52512;47.650;8.578;2023-04-25T04:50:15;5.37;;;3.00;;
65769;SDS011;52512;47.650;8.578;2023-04-25T04:52:41;14.13;;;5.68;;
65769;SDS011;52512;47.650;8.578;2023-04-25T04:55:07;17.63;;;4.35;;
65769;SDS011;52512;47.650;8.578;2023-04-25T04:57:34;7.10;;;4.03;;
65769;SDS011;52512;47.650;8.578;2023-04-25T05:00:00;3.55;;;2.65;;
65769;SDS011;52512;47.650;8.578;2023-04-25T05:02:26;10.13;;;2.93;;
65769;SDS011;52512;47.650;8.578;2023-04-25T05:04:52;3.65;;;3.13;;
65769;SDS011;52512;47.650;8.578;2023-04-25T05:07:18;8.90;;;3.00;;
65769;SDS011;52512;47.650;8.578;2023-04-25T05:09:44;6.00;;;4.13;;
65769;SDS011;52512;47.650;8.578;2023-04-25T05:12:10;7.40;;;2.47;;
65769;SDS011;52512;47.650;8.578;2023-04-25T05:14:36;4.78;;;2.95;;
65769;SDS011;52512;47.650;8.578;2023-04-25T05:17:01;3.90;;;3.20;;
65769;SDS011;52512;47.650;8.578;2023-04-25T05:19:29;5.05;;;3.63;;
65769;SDS011;52512;47.650;8.578;2023-04-25T05:21:55;7.60;;;3.07;;
65769;SDS011;52512;47.650;8.578;2023-04-25T05:24:21;5.63;;;3.27;;
65769;SDS011;52512;47.650;8.578;2023-04-25T05:26:46;3.33;;;2.60;;
65769;SDS011;52512;47.650;8.578;2023-04-25T05:29:12;3.30;;;3.00;;
65769;SDS011;52512;47.650;8.578;2023-04-25T05:31:38;10.37;;;3.20;;
65769;SDS011;52512;47.650;8.578;2023-04-25T05:34:04;5.77;;;2.50;;
65769;SDS011;52512;47.650;8.578;2023-04-25T05:36:29;4.93;;;3.30;;
65769;SDS011;52512;47.650;8.578;2023-04-25T05:38:57;3.28;;;2.95;;
65769;SDS011;52512;47.650;8.578;2023-04-25T05:41:23;5.77;;;3.17;;
65769;SDS011;52512;47.650;8.578;2023-04-25T05:43:48;4.27;;;3.20;;
65769;SDS011;52512;47.650;8.578;2023-04-25T05:46:14;10.37;;;4.00;;
65769;SDS011;52512;47.650;8.578;2023-04-25T05:48:42;4.05;;;3.40;;
65769;SDS011;52512;47.650;8.578;2023-04-25T05:51:08;9.27;;;3.10;;
65769;SDS011;52512;47.650;8.578;2023-04-25T05:53:34;7.10;;;3.23;;
65769;SDS011;52512;47.650;8.578;2023-04-25T05:56:00;4.53;;;2.73;;
65769;SDS011;52512;47.650;8.578;2023-04-25T05:58:26;5.72;;;3.22;;
65769;SDS011;52512;47.650;8.578;2023-04-25T06:00:51;5.00;;;3.33;;
65769;SDS011;52512;47.650;8.578;2023-04-25T06:03:17;5.53;;;3.83;;
65769;SDS011;52512;47.650;8.578;2023-04-25T06:05:43;8.60;;;3.00;;
65769;SDS011;52512;47.650;8.578;2023-04-25T06:08:09;4.80;;;3.13;;
65769;SDS011;52512;47.650;8.578;2023-04-25T06:10:35;7.40;;;3.40;;
65769;SDS011;52512;47.650;8.578;2023-04-25T06:13:01;3.58;;;3.10;;
65769;SDS011;52512;47.650;8.578;2023-04-25T06:15:27;3.67;;;2.97;;
65769;SDS011;52512;47.650;8.578;2023-04-25T06:17:53;8.80;;;3.57;;
65769;SDS011;52512;47.650;8.578;2023-04-25T06:20:19;9.30;;;3.42;;
65769;SDS011;52512;47.650;8.578;2023-04-25T06:22:48;15.40;;;3.78;;
65769;SDS011;52512;47.650;8.578;2023-04-25T06:25:14;27.33;;;11.13;;
65769;SDS011;52512;47.650;8.578;2023-04-25T06:27:40;16.05;;;6.55;;
65769;SDS011;52512;47.650;8.578;2023-04-25T06:30:06;11.70;;;4.10;;
65769;SDS011;52512;47.650;8.578;2023-04-25T06:32:32;8.55;;;3.95;;
65769;SDS011;52512;47.650;8.578;2023-04-25T06:34:59;12.52;;;5.80;;
65769;SDS011;52512;47.650;8.578;2023-04-25T06:37:25;14.32;;;5.22;;
65769;SDS011;52512;47.650;8.578;2023-04-25T06:39:51;11.93;;;4.33;;
65769;SDS011;52512;47.650;8.578;2023-04-25T06:42:16;4.47;;;2.67;;
65769;SDS011;52512;47.650;8.578;2023-04-25T06:44:42;3.37;;;2.77;;
65769;SDS011;52512;47.650;8.578;2023-04-25T06:47:08;7.80;;;4.10;;
65769;SDS011;52512;47.650;8.578;2023-04-25T06:49:34;3.70;;;2.57;;
65769;SDS011;52512;47.650;8.578;2023-04-25T06:51:59;3.83;;;3.20;;
65769;SDS011;52512;47.650;8.578;2023-04-25T06:54:25;2.77;;;2.50;;
65769;SDS011;52512;47.650;8.578;2023-04-25T06:56:53;2.25;;;2.00;;
65769;SDS011;52512;47.650;8.578;2023-04-25T06:59:19;3.10;;;2.53;;
65769;SDS011;52512;47.650;8.578;2023-04-25T07:01:45;5.70;;;3.60;;
65769;SDS011;52512;47.650;8.578;2023-04-25T07:04:10;7.00;;;3.47;;
65769;SDS011;52512;47.650;8.578;2023-04-25T07:06:36;11.03;;;3.43;;
65769;SDS011;52512;47.650;8.578;2023-04-25T07:09:07;2.65;;;2.45;;
65769;SDS011;52512;47.650;8.578;2023-04-25T07:11:36;3.53;;;2.15;;
65769;SDS011;52512;47.650;8.578;2023-04-25T07:14:02;2.63;;;2.42;;
65769;SDS011;52512;47.650;8.578;2023-04-25T07:16:27;4.10;;;2.60;;
65769;SDS011;52512;47.650;8.578;2023-04-25T07:18:53;6.70;;;2.93;;
65769;SDS011;52512;47.650;8.578;2023-04-25T07:21:19;5.83;;;1.40;;
65769;SDS011;52512;47.650;8.578;2023-04-25T07:23:44;4.80;;;2.40;;
65769;SDS011;52512;47.650;8.578;2023-04-25T07:26:10;4.93;;;2.40;;
65769;SDS011;52512;47.650;8.578;2023-04-25T07:28:36;3.60;;;2.80;;
65769;SDS011;52512;47.650;8.578;2023-04-25T07:31:01;4.80;;;2.40;;
65769;SDS011;52512;47.650;8.578;2023-04-25T07:33:28;8.67;;;2.90;;
65769;SDS011;52512;47.650;8.578;2023-04-25T07:35:54;3.70;;;2.10;;
65769;SDS011;52512;47.650;8.578;2023-04-25T07:38:20;21.73;;;6.20;;
65769;SDS011;52512;47.650;8.578;2023-04-25T07:40:47;5.43;;;3.50;;
65769;SDS011;52512;47.650;8.578;2023-04-25T07:43:13;6.13;;;2.78;;
65769;SDS011;52512;47.650;8.578;2023-04-25T07:45:41;7.20;;;3.17;;
65769;SDS011;52512;47.650;8.578;2023-04-25T07:48:07;3.72;;;3.20;;
65769;SDS011;52512;47.650;8.578;2023-04-25T07:50:33;4.60;;;3.20;;
65769;SDS011;52512;47.650;8.578;2023-04-25T07:52:59;3.33;;;2.97;;
65769;SDS011;52512;47.650;8.578;2023-04-25T07:55:24;11.30;;;2.73;;
65769;SDS011;52512;47.650;8.578;2023-04-25T07:57:50;8.20;;;2.72;;
65769;SDS011;52512;47.650;8.578;2023-04-25T08:00:16;4.73;;;2.50;;
65769;SDS011;52512;47.650;8.578;2023-04-25T08:02:42;2.83;;;2.27;;
65769;SDS011;52512;47.650;8.578;2023-04-25T08:05:07;2.27;;;2.10;;
65769;SDS011;52512;47.650;8.578;2023-04-25T08:07:36;2.60;;;2.40;;
65769;SDS011;52512;47.650;8.578;2023-04-25T08:10:03;3.47;;;2.53;;
65769;SDS011;52512;47.650;8.578;2023-04-25T08:12:30;2.42;;;2.30;;
65769;SDS011;52512;47.650;8.578;2023-04-25T08:14:55;3.07;;;2.47;;
65769;SDS011;52512;47.650;8.578;2023-04-25T08:17:21;2.53;;;2.33;;
65769;SDS011;52512;47.650;8.578;2023-04-25T08:19:47;7.40;;;2.20;;
65769;SDS011;52512;47.650;8.578;2023-04-25T08:22:12;6.57;;;3.50;;
65769;SDS011;52512;47.650;8.578;2023-04-25T08:24:38;3.03;;;2.47;;
65769;SDS011;52512;47.650;8.578;2023-04-25T08:27:03;2.57;;;2.43;;
65769;SDS011;52512;47.650;8.578;2023-04-25T08:29:29;3.40;;;2.40;;
65769;SDS011;52512;47.650;8.578;2023-04-25T08:31:55;6.73;;;1.80;;
65769;SDS011;52512;47.650;8.578;2023-04-25T08:34:20;6.70;;;2.90;;
65769;SDS011;52512;47.650;8.578;2023-04-25T08:36:46;2.27;;;2.17;;
65769;SDS011;52512;47.650;8.578;2023-04-25T08:39:12;2.57;;;2.10;;
65769;SDS011;52512;47.650;8.578;2023-04-25T08:41:38;7.38;;;2.28;;
65769;SDS011;52512;47.650;8.578;2023-04-25T08:44:06;2.38;;;1.83;;
65769;SDS011;52512;47.650;8.578;2023-04-25T08:46:35;1.17;;;1.17;;
65769;SDS011;52512;47.650;8.578;2023-04-25T08:49:05;1.10;;;1.10;;
65769;SDS011;52512;47.650;8.578;2023-04-25T08:51:32;1.98;;;1.70;;
65769;SDS011;52512;47.650;8.578;2023-04-25T08:54:09;2.63;;;1.80;;
65769;SDS011;52512;47.650;8.578;2023-04-25T08:56:37;2.08;;;1.92;;
65769;SDS011;52512;47.650;8.578;2023-04-25T08:59:05;2.58;;;1.35;;
65769;SDS011;52512;47.650;8.578;2023-04-25T09:01:33;1.00;;;0.95;;
65769;SDS011;52512;47.650;8.578;2023-04-25T09:04:00;1.98;;;1.65;;
65769;SDS011;52512;47.650;8.578;2023-04-25T09:06:26;2.10;;;1.47;;
65769;SDS011;52512;47.650;8.578;2023-04-25T09:08:53;1.60;;;1.42;;
65769;SDS011;52512;47.650;8.578;2023-04-25T09:11:19;4.03;;;1.50;;
65769;SDS011;52512;47.650;8.578;2023-04-25T09:13:45;1.30;;;1.30;;
65769;SDS011;52512;47.650;8.578;2023-04-25T09:16:10;1.33;;;1.20;;
65769;SDS011;52512;47.650;8.578;2023-04-25T09:18:36;1.30;;;1.10;;
65769;SDS011;52512;47.650;8.578;2023-04-25T09:21:06;1.63;;;1.53;;
65769;SDS011;52512;47.650;8.578;2023-04-25T09:23:47;1.23;;;1.17;;
65769;SDS011;52512;47.650;8.578;2023-04-25T09:26:14;1.40;;;1.38;;
65769;SDS011;52512;47.650;8.578;2023-04-25T09:28:42;1.20;;;1.10;;
65769;SDS011;52512;47.650;8.578;2023-04-25T09:31:09;1.13;;;1.10;;
65769;SDS011;52512;47.650;8.578;2023-04-25T09:33:36;1.10;;;1.00;;
65769;SDS011;52512;47.650;8.578;2023-04-25T09:36:09;1.45;;;1.30;;
65769;SDS011;52512;47.650;8.578;2023-04-25T09:38:42;1.50;;;1.40;;
65769;SDS011;52512;47.650;8.578;2023-04-25T09:41:09;1.15;;;1.02;;
65769;SDS011;52512;47.650;8.578;2023-04-25T09:43:36;3.35;;;2.00;;
65769;SDS011;52512;47.650;8.578;2023-04-25T09:46:02;1.20;;;1.20;;
65769;SDS011;52512;47.650;8.578;2023-04-25T09:48:32;1.30;;;1.30;;
65769;SDS011;52512;47.650;8.578;2023-04-25T09:51:11;1.40;;;1.30;;
65769;SDS011;52512;47.650;8.578;2023-04-25T09:53:42;2.80;;;1.10;;
65769;SDS011;52512;47.650;8.578;2023-04-25T09:56:10;8.05;;;1.80;;
65769;SDS011;52512;47.650;8.578;2023-04-25T09:58:38;3.92;;;1.20;;
65769;SDS011;52512;47.650;8.578;2023-04-25T10:01:08;1.20;;;1.10;;
65769;SDS011;52512;47.650;8.578;2023-04-25T10:03:36;1.15;;;1.15;;
65769;SDS011;52512;47.650;8.578;2023-04-25T10:06:07;2.50;;;1.33;;
65769;SDS011;52512;47.650;8.578;2023-04-25T10:08:34;2.00;;;1.15;;
65769;SDS011;52512;47.650;8.578;2023-04-25T10:11:05;1.65;;;1.40;;
65769;SDS011;52512;47.650;8.578;2023-04-25T10:13:33;1.00;;;1.00;;
65769;SDS011;52512;47.650;8.578;2023-04-25T10:16:04;1.80;;;1.30;;
65769;SDS011;52512;47.650;8.578;2023-04-25T10:18:30;1.10;;;1.05;;
65769;SDS011;52512;47.650;8.578;2023-04-25T10:21:00;1.40;;;1.00;;
65769;SDS011;52512;47.650;8.578;2023-04-25T10:23:27;2.00;;;1.55;;
65769;SDS011;52512;47.650;8.578;2023-04-25T10:25:55;1.55;;;1.10;;
65769;SDS011;52512;47.650;8.578;2023-04-25T10:28:21;0.82;;;0.82;;
65769;SDS011;52512;47.650;8.578;2023-04-25T10:31:03;1.93;;;1.10;;
65769;SDS011;52512;47.650;8.578;2023-04-25T10:33:39;1.73;;;1.00;;
65769;SDS011;52512;47.650;8.578;2023-04-25T10:36:14;0.90;;;0.90;;
65769;SDS011;52512;47.650;8.578;2023-04-25T10:38:43;1.20;;;1.10;;
65769;SDS011;52512;47.650;8.578;2023-04-25T10:41:10;1.20;;;1.15;;
65769;SDS011;52512;47.650;8.578;2023-04-25T10:43:41;0.95;;;0.90;;
65769;SDS011;52512;47.650;8.578;2023-04-25T10:46:18;0.80;;;0.80;;
65769;SDS011;52512;47.650;8.578;2023-04-25T10:48:49;1.30;;;1.15;;
65769;SDS011;52512;47.650;8.578;2023-04-25T10:51:24;0.98;;;0.98;;
65769;SDS011;52512;47.650;8.578;2023-04-25T10:56:20;2.00;;;1.20;;
65769;SDS011;52512;47.650;8.578;2023-04-25T10:59:04;2.33;;;1.02;;
65769;SDS011;52512;47.650;8.578;2023-04-25T11:01:35;0.80;;;0.80;;
65769;SDS011;52512;47.650;8.578;2023-04-25T11:07:02;1.42;;;1.13;;
65769;SDS011;52512;47.650;8.578;2023-04-25T11:09:35;2.03;;;1.48;;
65769;SDS011;52512;47.650;8.578;2023-04-25T11:12:03;1.33;;;1.23;;
65769;SDS011;52512;47.650;8.578;2023-04-25T11:14:30;1.52;;;1.15;;
65769;SDS011;52512;47.650;8.578;2023-04-25T11:16:56;0.85;;;0.85;;
65769;SDS011;52512;47.650;8.578;2023-04-25T11:19:24;1.92;;;1.67;;
65769;SDS011;52512;47.650;8.578;2023-04-25T11:21:54;2.30;;;1.15;;
65769;SDS011;52512;47.650;8.578;2023-04-25T11:24:31;0.90;;;0.90;;
65769;SDS011;52512;47.650;8.578;2023-04-25T11:26:59;0.80;;;0.80;;
65769;SDS011;52512;47.650;8.578;2023-04-25T11:29:27;0.90;;;0.90;;
65769;SDS011;52512;47.650;8.578;2023-04-25T11:31:54;2.35;;;1.20;;
65769;SDS011;52512;47.650;8.578;2023-04-25T11:34:23;1.20;;;1.10;;
65769;SDS011;52512;47.650;8.578;2023-04-25T11:36:50;1.15;;;1.05;;
65769;SDS011;52512;47.650;8.578;2023-04-25T11:39:18;1.17;;;1.17;;
65769;SDS011;52512;47.650;8.578;2023-04-25T11:41:44;1.10;;;1.00;;
65769;SDS011;52512;47.650;8.578;2023-04-25T11:44:10;0.80;;;0.80;;
65769;SDS011;52512;47.650;8.578;2023-04-25T11:46:36;1.03;;;1.03;;
65769;SDS011;52512;47.650;8.578;2023-04-25T11:49:02;1.03;;;1.00;;
65769;SDS011;52512;47.650;8.578;2023-04-25T11:51:30;1.98;;;0.70;;
65769;SDS011;52512;47.650;8.578;2023-04-25T11:54:03;1.30;;;0.82;;
65769;SDS011;52512;47.650;8.578;2023-04-25T11:56:30;1.17;;;1.15;;
65769;SDS011;52512;47.650;8.578;2023-04-25T11:58:57;1.30;;;1.20;;
65769;SDS011;52512;47.650;8.578;2023-04-25T12:01:27;1.10;;;0.98;;
65769;SDS011;52512;47.650;8.578;2023-04-25T12:03:57;1.85;;;1.00;;
65769;SDS011;52512;47.650;8.578;2023-04-25T12:06:27;1.02;;;0.85;;
65769;SDS011;52512;47.650;8.578;2023-04-25T12:09:03;1.70;;;1.40;;
65769;SDS011;52512;47.650;8.578;2023-04-25T12:11:32;1.33;;;1.23;;
65769;SDS011;52512;47.650;8.578;2023-04-25T12:14:05;1.45;;;1.30;;
65769;SDS011;52512;47.650;8.578;2023-04-25T12:16:41;1.23;;;1.17;;
65769;SDS011;52512;47.650;8.578;2023-04-25T12:19:07;1.60;;;1.50;;
65769;SDS011;52512;47.650;8.578;2023-04-25T12:21:33;1.27;;;1.17;;
65769;SDS011;52512;47.650;8.578;2023-04-25T12:24:20;4.00;;;1.50;;
65769;SDS011;52512;47.650;8.578;2023-04-25T12:29:27;1.38;;;1.27;;
65769;SDS011;52512;47.650;8.578;2023-04-25T12:31:54;5.63;;;1.17;;
65769;SDS011;52512;47.650;8.578;2023-04-25T12:34:21;1.55;;;1.38;;
65769;SDS011;52512;47.650;8.578;2023-04-25T12:36:49;1.45;;;1.35;;
65769;SDS011;52512;47.650;8.578;2023-04-25T12:39:16;1.67;;;1.55;;
65769;SDS011;52512;47.650;8.578;2023-04-25T12:41:52;0.98;;;0.98;;
65769;SDS011;52512;47.650;8.578;2023-04-25T12:44:21;4.00;;;2.25;;
65769;SDS011;52512;47.650;8.578;2023-04-25T12:46:47;1.13;;;1.10;;
65769;SDS011;52512;47.650;8.578;2023-04-25T12:49:13;1.43;;;1.00;;
65769;SDS011;52512;47.650;8.578;2023-04-25T12:51:39;1.67;;;1.13;;
65769;SDS011;52512;47.650;8.578;2023-04-25T12:54:06;1.20;;;1.10;;
65769;SDS011;52512;47.650;8.578;2023-04-25T12:56:33;1.17;;;1.17;;
65769;SDS011;52512;47.650;8.578;2023-04-25T12:59:00;1.00;;;1.00;;
65769;SDS011;52512;47.650;8.578;2023-04-25T13:01:25;1.40;;;1.20;;
65769;SDS011;52512;47.650;8.578;2023-04-25T13:03:51;1.50;;;1.20;;
65769;SDS011;52512;47.650;8.578;2023-04-25T13:06:18;2.60;;;1.30;;
65769;SDS011;52512;47.650;8.578;2023-04-25T13:08:44;7.13;;;1.55;;
65769;SDS011;52512;47.650;8.578;2023-04-25T13:11:10;1.37;;;1.27;;
65769;SDS011;52512;47.650;8.578;2023-04-25T13:13:36;1.70;;;1.60;;
65769;SDS011;52512;47.650;8.578;2023-04-25T13:16:02;3.07;;;1.30;;
65769;SDS011;52512;47.650;8.578;2023-04-25T13:18:29;1.38;;;1.27;;
65769;SDS011;52512;47.650;8.578;2023-04-25T13:20:55;1.20;;;1.10;;
65769;SDS011;52512;47.650;8.578;2023-04-25T13:23:22;0.90;;;0.90;;
65769;SDS011;52512;47.650;8.578;2023-04-25T13:25:48;3.50;;;1.15;;
65769;SDS011;52512;47.650;8.578;2023-04-25T13:28:14;0.70;;;0.70;;
65769;SDS011;52512;47.650;8.578;2023-04-25T13:30:40;1.80;;;1.38;;
65769;SDS011;52512;47.650;8.578;2023-04-25T13:33:07;1.05;;;1.05;;
65769;SDS011;52512;47.650;8.578;2023-04-25T13:35:34;1.07;;;1.03;;
65769;SDS011;52512;47.650;8.578;2023-04-25T13:38:00;1.55;;;1.02;;
65769;SDS011;52512;47.650;8.578;2023-04-25T13:40:26;2.20;;;1.92;;
65769;SDS011;52512;47.650;8.578;2023-04-25T13:42:52;0.83;;;0.83;;
65769;SDS011;52512;47.650;8.578;2023-04-25T13:45:19;4.10;;;2.10;;
65769;SDS011;52512;47.650;8.578;2023-04-25T13:47:45;1.35;;;1.30;;
65769;SDS011;52512;47.650;8.578;2023-04-25T13:50:12;1.20;;;1.10;;
65769;SDS011;52512;47.650;8.578;2023-04-25T13:52:39;2.03;;;1.92;;
65769;SDS011;52512;47.650;8.578;2023-04-25T13:55:05;9.10;;;1.10;;
65769;SDS011;52512;47.650;8.578;2023-04-25T13:57:32;1.45;;;1.13;;
65769;SDS011;52512;47.650;8.578;2023-04-25T14:00:02;3.83;;;1.30;;
65769;SDS011;52512;47.650;8.578;2023-04-25T14:02:33;1.60;;;1.50;;
65769;SDS011;52512;47.650;8.578;2023-04-25T14:04:59;3.30;;;3.10;;
65769;SDS011;52512;47.650;8.578;2023-04-25T14:07:26;2.45;;;2.20;;
65769;SDS011;52512;47.650;8.578;2023-04-25T14:09:52;4.63;;;2.30;;
65769;SDS011;52512;47.650;8.578;2023-04-25T14:12:17;2.40;;;1.77;;
65769;SDS011;52512;47.650;8.578;2023-04-25T14:14:43;1.53;;;1.43;;
65769;SDS011;52512;47.650;8.578;2023-04-25T14:17:09;4.70;;;3.30;;
65769;SDS011;52512;47.650;8.578;2023-04-25T14:19:35;3.40;;;1.37;;
65769;SDS011;52512;47.650;8.578;2023-04-25T14:22:02;5.15;;;1.25;;
65769;SDS011;52512;47.650;8.578;2023-04-25T14:24:28;1.13;;;1.13;;
65769;SDS011;52512;47.650;8.578;2023-04-25T14:26:53;1.20;;;1.10;;
65769;SDS011;52512;47.650;8.578;2023-04-25T14:29:19;2.07;;;1.87;;
65769;SDS011;52512;47.650;8.578;2023-04-25T14:31:45;2.80;;;1.83;;
65769;SDS011;52512;47.650;8.578;2023-04-25T14:34:11;2.60;;;1.67;;
65769;SDS011;52512;47.650;8.578;2023-04-25T14:36:38;1.50;;;1.40;;
65769;SDS011;52512;47.650;8.578;2023-04-25T14:39:04;3.58;;;1.55;;
65769;SDS011;52512;47.650;8.578;2023-04-25T14:41:33;3.42;;;1.63;;
65769;SDS011;52512;47.650;8.578;2023-04-25T14:43:59;7.50;;;2.00;;
65769;SDS011;52512;47.650;8.578;2023-04-25T14:46:25;2.07;;;1.70;;
65769;SDS011;52512;47.650;8.578;2023-04-25T14:48:51;1.80;;;1.70;;
65769;SDS011;52512;47.650;8.578;2023-04-25T14:51:17;1.17;;;1.07;;